Estació municipal de Les Masies de Roda (Osona, Ter)

Consulta les dades en temps real de l'estació municipal de Les Masies de Roda





Hora UTC 19:20
Temperatura 26.2 ºC
Sòl 15 cm 24.1 ºC
Humitat 68.0 %
Pressió 1021.7 hPa
Pluja 0.0 mm
Velocitat vent 5.3 km/h
Direcció vent S
Radiació solar 31.8 W/m²

Dades diàries 2026-09-03



Hora UTC (hivern +1h; estiu +2h)
Temperatura (ºC) Humitat (%) Pressió (hPa) Velocitat vent (km/h) Precipitació (mm) Radiació solar (W/m²)
Hora UTC Aire Sòl 15 cm Humitat Pressió Vel. Dir. Vel. Max Dir. Intent. màx 5 min. Rad. Sol.
00:05 18.6 15.7 83.4 1022.7 0.9 ENE 0.9 ENE 0.0 9.3
00:10 18.8 15.8 82.1 1022.9 2.0 E 3.9 ESE 0.0 5.6
00:15 18.8 15.8 81.2 1022.7 1.2 WNW 3.5 WNW 0.0 8.9
00:20 18.2 15.7 84.7 1022.9 0.0 NNE 0.0 WNW 0.0 8.1
00:25 18.2 15.6 85.4 1022.8 0.0 NNE 0.0 WNW 0.0 6.7
00:30 18.2 15.5 85.4 1022.9 1.4 SSE 3.9 SE 0.0 5.4
00:35 18.4 15.5 83.7 1022.9 0.7 SE 2.8 SE 0.0 8.6
00:40 18.3 15.6 83.6 1023.0 0.8 ENE 2.8 ESE 0.0 6.5
00:45 18.0 15.5 85.4 1022.9 0.2 NW 2.5 NW 0.0 6.2
00:50 17.9 15.4 85.9 1023.0 0.0 NNE 2.8 NNE 0.0 54.0
00:55 18.1 15.4 86.3 1022.9 2.9 NE 3.5 NNE 0.0 195.1
01:00 18.3 15.6 85.8 1022.9 2.1 ENE 4.2 NE 0.0 188.6
01:05 18.1 15.4 85.2 1022.9 2.2 ENE 3.5 ENE 0.0 167.4
01:10 17.6 15.2 86.4 1022.8 0.0 NNE 0.0 ENE 0.0 169.5
01:15 17.3 15.1 87.9 1022.9 0.0 NNE 0.0 ENE 0.0 161.4
01:20 17.2 15.0 87.9 1022.8 0.6 NW 2.8 NW 0.0 161.8
01:25 17.1 14.9 89.2 1022.9 0.0 NNE 0.0 N 0.0 156.3
01:30 16.9 14.8 89.9 1022.8 1.8 W 3.2 W 0.0 259.6
01:35 16.9 14.8 91.2 1022.9 0.0 NNE 0.0 W 0.0 264.9
01:40 17.1 14.8 90.9 1022.8 0.0 NNE 0.0 NNE 0.0 273.2
01:45 17.1 14.8 88.9 1023.0 0.0 NNE 0.0 NNE 0.0 270.0
01:50 17.0 14.7 90.0 1022.8 0.0 NNE 0.0 NNE 0.0 274.2
01:55 16.9 14.5 89.9 1022.9 0.0 NNE 0.0 NNE 0.0 304.7
02:00 16.8 14.5 90.7 1022.8 0.0 NNE 0.0 ENE 0.0 268.9
02:05 16.7 14.5 91.0 1022.9 0.0 NNE 0.0 WNW 0.0 266.2
02:10 16.7 14.5 91.1 1022.7 0.0 NNE 0.0 WNW 0.0 270.2
02:15 16.9 14.5 90.5 1022.9 0.0 NNE 0.0 NNE 0.0 274.5
02:20 16.9 14.4 90.0 1022.8 0.0 NNE 0.0 NNE 0.0 288.1
02:25 16.7 14.4 89.9 1022.9 0.2 NNE 2.1 NNE 0.0 284.1
02:30 16.7 14.3 90.4 1022.8 0.7 ENE 2.1 ENE 0.0 275.8
02:35 16.8 14.3 89.9 1023.0 1.3 NE 3.2 ENE 0.0 270.1
02:40 16.7 14.2 89.6 1022.8 1.7 ENE 3.5 ENE 0.0 282.9
02:45 16.5 14.2 89.6 1022.9 0.1 ENE 1.8 ENE 0.0 275.1
02:50 16.4 14.1 90.2 1022.8 0.0 NNE 0.0 ENE 0.0 270.1
02:55 16.5 14.1 90.6 1022.9 0.0 NNE 0.0 ENE 0.0 264.2
03:00 16.3 14.0 90.1 1022.8 0.0 NNE 0.0 NNE 0.0 298.1
03:05 16.2 13.9 91.0 1022.9 0.0 NNE 0.0 NNE 0.0 274.4
03:10 16.2 13.8 91.6 1022.8 0.0 NNE 0.0 NNE 0.0 279.9
03:15 16.3 13.8 91.8 1022.9 0.0 NNE 0.0 NNE 0.0 274.5
03:20 16.2 13.8 91.0 1022.7 0.0 NNE 0.0 NNE 0.0 266.6
03:25 16.1 13.7 92.3 1022.8 0.0 NNE 0.0 NNE 0.0 285.5
03:30 16.1 13.7 92.0 1022.7 0.5 NNE 2.1 NNE 0.0 288.8
03:35 16.1 13.7 92.6 1022.7 0.2 NNE 2.1 NNE 0.0 293.6
03:40 16.0 13.7 92.2 1022.5 0.0 NNE 0.0 NNE 0.0 293.4
03:45 16.0 13.7 92.2 1022.6 0.0 NNE 0.0 NNE 0.0 307.4
03:50 15.8 13.7 92.2 1022.5 0.0 NNE 0.0 NNE 0.0 294.9
03:55 15.7 13.6 92.5 1022.7 0.0 NNE 0.0 N 0.0 295.8
04:00 15.6 13.5 92.9 1022.5 0.0 NNE 0.0 N 0.0 304.6
04:05 15.5 13.3 93.1 1022.6 0.2 E 2.1 E 0.0 306.3
04:10 15.4 13.3 93.6 1022.4 0.0 NNE 0.0 E 0.0 302.7
04:15 15.4 13.3 93.7 1022.5 0.4 E 2.5 E 0.0 308.6
04:20 15.3 13.2 94.3 1022.3 1.2 WSW 2.5 E 0.0 302.0
04:25 15.5 13.3 94.7 1022.5 0.0 NNE 0.0 WSW 0.0 295.6
04:30 15.5 13.4 94.1 1022.3 0.0 NNE 0.0 N 0.0 304.2
04:35 15.4 13.3 93.8 1022.5 0.0 NNE 0.0 N 0.0 317.9
04:40 15.5 13.3 93.7 1022.3 0.0 NNE 0.0 N 0.0 296.6
04:45 15.5 13.3 93.2 1022.5 0.6 N 2.5 N 0.0 301.9
04:50 15.3 13.2 93.0 1022.4 0.1 N 1.8 N 0.0 303.5
04:55 15.2 13.2 93.0 1022.6 1.8 NW 2.8 WNW 0.0 321.6
05:00 15.1 13.0 93.6 1022.5 0.0 NNE 0.0 NW 0.0 320.4
05:05 15.2 12.9 94.2 1022.6 0.0 NNE 0.0 NNE 0.0 315.2
05:10 15.3 13.0 94.5 1022.5 0.0 NNE 0.0 NNE 0.0 328.0
05:15 15.3 13.0 94.2 1022.7 2.5 E 3.5 E 0.0 304.7
05:20 15.3 13.0 94.4 1022.6 2.6 ENE 3.9 ENE 0.0 291.4
05:25 15.3 13.1 93.8 1022.8 1.2 NE 3.2 NNW 0.0 304.2
05:30 15.2 13.2 93.7 1022.8 0.6 N 2.8 NW 0.0 303.0
05:35 15.1 13.2 94.1 1022.9 0.6 N 2.5 N 0.0 313.2
05:40 15.0 13.2 94.3 1022.9 0.0 NNE 0.0 N 0.0 312.6
05:45 15.2 13.3 94.4 1023.0 0.0 NNE 0.0 N 0.0 316.0
05:50 15.1 13.4 93.7 1023.0 0.2 N 2.5 N 0.0 311.2
05:55 15.2 13.5 93.8 1022.9 2.1 N 3.2 NNW 0.0 321.6
06:00 15.3 13.6 93.8 1023.1 0.3 NNW 2.1 NNW 0.0 328.3
06:05 15.5 13.8 93.6 1023.0 0.0 NNE 0.0 NNW 0.0 341.9
06:10 15.6 14.1 93.1 1023.1 0.0 NNE 0.0 NNW 0.0 363.9
06:15 16.0 14.5 92.7 1023.0 0.0 NNE 0.0 NNW 0.0 342.1
06:20 16.4 14.9 91.3 1023.2 0.0 NNE 0.0 NNW 0.0 351.2
06:25 16.9 15.3 90.5 1023.2 0.0 NNE 0.0 NNW 0.0 357.3
06:30 17.1 15.8 89.8 1023.3 0.0 NNE 0.0 NNW 0.0 274.1
06:35 17.5 16.4 88.9 1023.3 0.0 NNE 0.0 NNW 0.0 101.3
06:40 18.5 16.9 84.5 1023.3 0.0 NNE 0.0 NNW 0.0 8.9
06:45 18.9 17.2 81.7 1023.3 0.9 NW 2.8 NW 0.0 9.9
06:50 18.6 17.5 82.3 1023.3 0.3 NW 2.1 NW 0.0 12.1
06:55 19.3 18.0 80.8 1023.4 0.6 WSW 2.5 WSW 0.0 15.8
07:00 19.5 18.3 78.8 1023.2 0.7 WSW 3.9 WSW 0.0 19.0
07:05 19.5 18.9 78.3 1023.4 0.9 SE 2.8 SE 0.0 19.6
07:10 19.8 19.5 77.3 1023.2 2.2 SSE 4.2 S 0.0 18.4
07:15 20.2 20.1 75.8 1023.4 1.3 SW 4.2 S 0.0 22.2
07:20 20.4 20.7 76.5 1023.3 2.1 WNW 4.6 W 0.0 15.5
07:25 20.4 21.3 75.7 1023.3 0.8 WNW 2.5 WNW 0.0 28.7
07:30 20.5 21.9 75.6 1023.3 1.6 SSW 5.0 S 0.0 27.6
07:35 21.0 22.6 73.2 1023.3 1.0 SSW 3.9 WSW 0.0 36.3
07:40 21.5 23.3 71.6 1023.4 1.8 WSW 5.0 SW 0.0 35.3
07:45 21.7 23.8 72.9 1023.2 2.7 WNW 4.6 W 0.0 38.3
07:50 21.8 24.3 72.5 1023.3 2.7 WSW 4.2 WNW 0.0 43.3
07:55 22.1 24.7 69.0 1023.2 2.8 ESE 5.0 ENE 0.0 46.5
08:00 22.3 25.1 67.9 1023.3 0.8 E 2.8 E 0.0 48.5
08:05 22.7 25.4 66.7 1023.1 1.1 ESE 3.2 ESE 0.0 49.6
08:10 23.4 26.0 65.1 1023.1 3.4 SW 5.3 WSW 0.0 59.5
08:15 23.7 26.6 64.9 1023.1 2.4 SW 5.3 SW 0.0 39.1
08:20 24.2 27.1 62.9 1023.1 0.7 SSW 3.9 SSW 0.0 54.6
08:25 24.3 27.6 62.6 1023.2 2.1 SSW 6.7 SSW 0.0 72.4
08:30 24.4 28.1 63.4 1023.1 3.5 W 5.7 WNW 0.0 81.0
08:35 24.2 28.5 62.6 1023.2 0.8 WNW 3.9 W 0.0 49.9
08:40 24.5 28.9 61.1 1023.2 2.4 SE 5.0 ESE 0.0 45.1
08:45 24.7 29.3 60.8 1023.1 0.4 ENE 2.8 E 0.0 54.9
08:50 25.1 30.0 59.1 1023.3 1.0 NE 3.9 NNE 0.0 58.9
08:55 25.4 30.5 58.1 1023.2 0.7 N 3.2 NE 0.0 59.4
09:00 25.7 30.9 57.8 1023.1 3.1 SSE 5.7 SSE 0.0 51.1
09:05 25.7 31.1 57.2 1023.2 1.4 N 3.5 WNW 0.0 48.9
09:10 26.1 31.7 55.8 1023.2 1.8 NE 4.6 NE 0.0 52.8
09:15 26.3 32.2 54.9 1023.0 2.6 NE 5.3 NE 0.0 57.1
09:20 26.9 32.5 53.4 1023.1 1.3 E 2.8 ESE 0.0 59.1
09:25 27.0 32.7 52.9 1023.2 2.2 NNE 5.0 NE 0.0 51.7
09:30 27.6 33.3 51.4 1023.0 2.5 ENE 6.0 ENE 0.0 65.4
09:35 28.9 34.2 47.5 1023.0 2.7 SSE 8.1 SE 0.0 449.5
09:40 28.9 34.7 43.0 1023.1 3.1 SSE 6.4 ESE 0.0 643.3
09:45 29.2 35.2 44.1 1023.0 2.1 W 5.7 W 0.0 653.1
09:50 29.3 35.6 40.4 1022.9 2.4 SE 6.4 SSW 0.0 662.8
09:55 29.5 35.9 39.4 1022.9 4.5 SSE 8.8 S 0.0 671.3
10:00 29.7 36.4 39.0 1023.0 4.4 ENE 7.1 NE 0.0 678.1
10:05 29.8 36.7 40.3 1023.0 4.2 S 8.5 SSE 0.0 653.9
10:10 29.9 36.8 39.2 1022.8 1.9 ESE 3.5 S 0.0 588.1
10:15 29.7 37.1 40.1 1022.7 1.5 NNE 5.3 NNE 0.0 514.1
10:20 29.6 36.6 40.8 1022.9 5.0 N 8.5 NNE 0.0 508.3
10:25 29.5 36.3 40.9 1022.9 5.5 ENE 8.8 NNW 0.0 496.0
10:30 29.8 36.7 39.9 1022.7 3.2 NNE 6.7 NNE 0.0 404.6
10:35 29.9 37.0 41.0 1022.5 3.0 N 6.0 NNW 0.0 409.7
10:40 30.2 37.2 40.7 1022.4 5.6 SE 10.6 SSE 0.0 361.0
10:45 30.5 37.6 39.1 1022.5 6.0 ESE 11.0 SSE 0.0 352.4
10:50 30.3 38.1 39.0 1022.5 3.1 ENE 7.1 ENE 0.0 299.5
10:55 30.3 38.3 39.9 1022.4 3.2 NNW 11.7 NE 0.0 307.8
11:00 30.7 38.5 39.7 1022.2 2.2 NNE 7.1 SSW 0.0 274.0
11:05 31.3 39.0 39.3 1022.0 7.6 SSW 13.8 SSW 0.0 260.2
11:10 31.8 39.4 40.1 1022.1 6.4 SW 12.4 SSW 0.0 360.1
11:15 32.0 40.0 38.5 1022.1 5.2 NW 8.1 WNW 0.0 327.5
11:20 31.8 39.9 37.8 1022.1 5.3 NNE 12.0 ENE 0.0 302.7
11:25 31.7 40.0 36.9 1022.0 7.5 NE 14.5 ENE 0.0 239.9
11:30 31.6 39.6 37.1 1022.0 6.8 NE 13.1 NNE 0.0 267.7
11:35 31.6 39.5 36.8 1021.8 6.8 NE 13.4 NE 0.0 214.5
11:40 31.3 39.3 37.5 1021.8 4.4 N 10.3 NNE 0.0 252.8
11:45 31.4 39.3 37.3 1021.8 5.0 NNW 8.8 N 0.0 276.9
11:50 31.9 39.8 36.2 1021.9 5.3 NE 8.8 NNE 0.0 248.4
11:55 32.2 40.2 35.7 1021.9 4.4 N 8.8 N 0.0 313.4
12:00 32.1 40.4 37.3 1021.7 3.0 N 11.0 NNE 0.0 287.7
12:05 32.5 40.8 35.0 1021.6 5.3 NNE 11.7 NE 0.0 277.1
12:10 32.8 41.1 34.9 1021.4 5.3 NNE 15.5 NE 0.0 308.5
12:15 32.6 41.0 33.7 1021.4 7.1 ENE 11.3 NE 0.0 264.1
12:20 32.4 41.2 35.1 1021.4 6.7 SE 10.6 S 0.0 363.4
12:25 33.4 41.7 34.8 1021.4 3.9 S 10.6 SSW 0.0 304.7
12:30 33.6 42.5 33.3 1021.4 1.7 N 4.6 W 0.0 229.7
12:35 33.3 42.6 33.9 1021.3 6.6 N 14.1 NNW 0.0 296.2
12:40 33.1 42.2 32.1 1021.3 7.9 ENE 17.0 E 0.0 313.5
12:45 33.5 42.1 32.0 1021.2 7.2 E 14.1 E 0.0 305.0
12:50 33.3 42.1 32.0 1021.2 6.5 E 13.4 ENE 0.0 247.2
12:55 33.0 41.8 32.6 1021.2 7.4 NNE 12.7 ENE 0.0 303.8
13:00 33.2 41.3 32.1 1021.1 6.7 NE 12.0 NE 0.0 311.7
13:05 33.2 41.2 32.0 1021.0 6.0 NNE 17.3 NNE 0.0 247.9
13:10 33.4 41.4 31.6 1021.0 4.6 NNE 8.8 NNE 0.0 207.9
13:15 33.9 41.8 32.2 1021.0 5.1 NNW 10.6 NNE 0.0 207.2
13:20 34.8 42.5 32.5 1020.9 4.2 W 11.0 WNW 0.0 230.0
13:25 34.9 43.5 29.5 1020.9 5.5 NE 10.3 NE 0.0 276.4
13:30 34.1 43.6 30.1 1020.9 6.1 ENE 13.4 NE 0.0 341.5
13:35 34.0 43.2 30.0 1020.9 7.4 NNE 15.2 NE 0.0 312.0
13:40 34.0 42.5 31.4 1020.8 7.6 NNE 15.2 ENE 0.0 289.5
13:45 34.3 42.5 29.7 1020.7 5.4 NNE 11.0 NE 0.0 221.1
13:50 34.4 42.7 29.6 1020.6 6.2 ESE 15.9 ESE 0.0 101.0
13:55 34.4 42.4 29.2 1020.5 5.8 ESE 12.7 ENE 0.0 161.7
14:00 34.1 41.9 29.3 1020.5 4.4 ESE 11.3 SE 0.0 154.0
14:05 34.3 42.0 29.1 1020.4 5.1 ESE 8.5 SSW 0.0 226.2
14:10 34.9 42.4 31.0 1020.4 8.3 SSW 13.8 S 0.0 169.9
14:15 35.5 42.8 30.9 1020.3 9.6 WSW 16.6 WNW 0.0 154.2
14:20 35.7 43.1 28.8 1020.3 8.0 S 13.1 SSW 0.0 185.1
14:25 35.1 42.9 30.9 1020.2 4.6 SW 13.8 S 0.0 150.6
14:30 35.4 42.8 30.1 1020.2 8.6 SSW 14.5 SSE 0.0 146.8
14:35 35.5 42.6 30.5 1020.2 11.0 SSW 21.9 SSE 0.0 144.4
14:40 35.3 42.2 30.8 1020.2 14.0 SSW 23.3 SW 0.0 121.6
14:45 35.0 41.8 30.5 1020.2 17.3 SSW 25.1 SSW 0.0 83.5
14:50 34.7 41.3 31.3 1020.2 12.7 SSW 23.3 SSW 0.0 67.3
14:55 34.7 40.8 31.4 1020.2 13.4 SSW 23.0 S 0.0 43.4
15:00 34.7 40.5 32.4 1020.3 12.5 SSW 23.7 SSW 0.0 23.0
15:05 34.7 40.5 32.1 1020.3 14.6 SSW 23.7 S 0.0 24.1
15:10 34.7 40.2 33.2 1020.2 13.9 SSW 23.7 S 0.0 16.1
15:15 34.5 39.9 33.7 1020.2 17.4 S 27.5 SSW 0.0 10.9
15:20 33.7 39.1 36.3 1020.2 18.2 S 28.9 SSW 0.0 22.8
15:25 33.3 38.2 37.0 1020.3 13.9 S 23.0 S 0.0 55.7
15:30 33.5 37.9 37.9 1020.3 16.6 SSW 27.5 SSE 0.0 43.0
15:35 33.7 37.8 37.8 1020.3 14.6 SSW 24.7 SSW 0.0 46.2
15:40 33.4 37.7 39.3 1020.3 15.0 S 29.3 S 0.0 40.8
15:45 33.2 37.3 39.9 1020.3 12.2 S 21.5 S 0.0 37.8
15:50 33.3 37.0 39.7 1020.2 11.7 S 23.3 S 0.0 41.8
15:55 33.2 36.9 40.9 1020.2 14.9 S 28.2 SSW 0.0 38.6
16:00 33.0 36.6 41.9 1020.3 12.6 S 24.4 SSE 0.0 35.6
16:05 32.8 36.3 42.6 1020.5 12.4 S 25.8 SSW 0.0 40.8
16:10 32.5 35.8 43.4 1020.5 15.4 S 28.6 SSE 0.0 34.8
16:15 32.2 35.1 44.0 1020.5 13.1 SSE 24.0 S 0.0 40.3
16:20 32.2 34.6 44.1 1020.4 13.2 SSE 21.9 SSE 0.0 41.7
16:25 31.9 34.1 44.6 1020.4 12.5 SSE 23.7 SSE 0.0 43.9
16:30 32.3 34.0 44.7 1020.5 11.9 SSW 22.6 S 0.0 41.2
16:35 32.0 33.6 45.1 1020.6 15.1 S 22.2 SSE 0.0 30.1
16:40 32.0 33.3 45.3 1020.6 11.0 SSW 18.7 SSW 0.0 30.6
16:45 32.0 33.2 45.3 1020.6 11.0 SSW 20.1 SSE 0.0 40.1
16:50 31.8 32.8 45.6 1020.5 10.2 S 19.4 S 0.0 35.1
16:55 31.7 32.3 46.5 1020.4 11.2 S 18.4 S 0.0 39.0
17:00 31.4 31.8 47.3 1020.6 12.3 SSW 20.8 SSW 0.0 38.8
17:05 31.6 31.1 47.3 1020.7 12.3 SSW 21.5 SSW 0.0 37.7
17:10 31.5 30.6 47.3 1020.6 8.8 S 17.3 S 0.0 30.6
17:15 31.3 30.2 47.6 1020.6 8.8 S 16.6 SSE 0.0 34.9
17:20 31.0 29.9 48.6 1020.5 9.0 S 15.5 S 0.0 30.4
17:25 30.9 29.6 48.5 1020.7 11.8 S 18.0 SSW 0.0 25.4
17:30 30.8 29.4 48.9 1020.8 10.6 S 19.1 S 0.0 32.1
17:35 30.7 29.2 49.2 1020.7 10.2 SSE 14.5 SSE 0.0 33.2
17:40 30.6 29.1 49.1 1020.7 10.7 SSE 17.7 SSE 0.0 26.3
17:45 30.5 28.9 47.6 1020.8 8.8 SSE 18.7 SSE 0.0 30.9
17:50 30.6 28.7 43.4 1020.8 8.2 SE 14.5 SSE 0.0 26.9
17:55 30.5 28.5 47.9 1020.7 8.0 S 12.4 SE 0.0 28.5
18:00 29.8 28.0 52.8 1020.9 7.5 S 13.4 S 0.0 26.2
18:05 29.3 27.5 54.9 1021.0 8.9 SSW 18.0 S 0.0 22.9
18:10 28.9 27.0 56.4 1020.9 8.0 S 14.8 SSW 0.0 28.4
18:15 28.5 26.6 57.4 1021.0 8.9 SSW 14.5 SSW 0.0 30.2
18:20 28.3 26.2 58.2 1021.2 9.3 SSW 14.5 SSW 0.0 34.4
18:25 28.0 25.9 59.0 1021.1 9.9 SSW 15.2 SSW 0.0 31.3
18:30 27.8 25.6 59.9 1021.3 10.0 SSW 17.3 SSW 0.0 31.5
18:35 27.5 25.3 61.2 1021.3 8.3 SSW 15.2 SSW 0.0 33.2
18:40 27.4 25.1 62.0 1021.2 9.5 SSW 15.2 SSW 0.0 34.3
18:45 27.2 24.9 62.9 1021.4 7.6 SSW 12.7 SW 0.0 30.9
18:50 27.0 24.6 63.9 1021.3 7.8 SSW 14.5 SSW 0.0 30.5
18:55 26.8 24.5 64.9 1021.4 8.9 S 15.2 S 0.0 29.0
19:00 26.8 24.5 65.5 1021.5 9.8 S 15.2 SSW 0.0 27.3
19:05 26.7 24.6 66.1 1021.5 8.0 S 17.0 SSE 0.0 28.0
19:10 26.6 24.4 66.7 1021.7 7.6 S 14.5 S 0.0 31.5
19:15 26.4 24.3 67.3 1021.5 5.9 SSW 10.3 SSE 0.0 31.5
19:20 26.2 24.1 68.0 1021.7 5.3 S 9.2 S 0.0 31.8
Màxima 35.7 43.6 94.7 1023.4 18.2 S 29.3 S 0.0 678.1
Mínima 15.0 12.9 28.8 1020.2
Total 0.0